createdAt,value
2023-02-22T00:00:02.827Z,1005.14
2023-02-22T00:01:02.661Z,1005.09
2023-02-22T00:02:02.081Z,1005.09
2023-02-22T00:03:01.727Z,1005.12
2023-02-22T00:04:02.132Z,1005.09
2023-02-22T00:05:01.818Z,1005.06
2023-02-22T00:06:01.798Z,1005.11
2023-02-22T00:07:02.009Z,1005.05
2023-02-22T00:08:01.824Z,1004.96
2023-02-22T00:09:01.998Z,1005.01
2023-02-22T00:10:01.902Z,1005.04
2023-02-22T00:11:01.989Z,1005.00
2023-02-22T00:12:02.101Z,1005.00
2023-02-22T00:13:02.148Z,1005.05
2023-02-22T00:14:01.960Z,1005.00
2023-02-22T00:15:02.254Z,1004.99
2023-02-22T00:16:02.414Z,1005.03
2023-02-22T00:17:02.448Z,1004.95
2023-02-22T00:18:02.967Z,1004.93
2023-02-22T00:19:02.330Z,1004.95
2023-02-22T00:20:02.685Z,1004.94
2023-02-22T00:21:02.435Z,1004.94
2023-02-22T00:22:02.879Z,1004.90
2023-02-22T00:23:02.655Z,1004.87
2023-02-22T00:24:02.934Z,1004.89
2023-02-22T00:25:02.854Z,1004.90
2023-02-22T00:26:02.841Z,1004.87
2023-02-22T00:27:01.773Z,1004.87
2023-02-22T00:28:02.378Z,1004.89
2023-02-22T00:29:01.902Z,1004.83
2023-02-22T00:30:01.907Z,1004.84
2023-02-22T00:31:01.769Z,1004.86
2023-02-22T00:32:02.651Z,1004.78
2023-02-22T00:33:02.124Z,1004.81
2023-02-22T00:34:02.505Z,1004.76
2023-02-22T00:35:02.532Z,1004.81
2023-02-22T00:36:02.475Z,1004.83
2023-02-22T00:37:02.869Z,1004.78
2023-02-22T00:38:03.019Z,1004.85
2023-02-22T00:39:02.725Z,1004.81
2023-02-22T00:40:02.368Z,1004.80
2023-02-22T00:41:02.663Z,1004.78
2023-02-22T00:42:02.180Z,1004.80
2023-02-22T00:43:01.562Z,1004.80
2023-02-22T00:44:02.049Z,1004.80
2023-02-22T00:45:01.906Z,1004.85
2023-02-22T00:46:01.785Z,1004.81
2023-02-22T00:47:01.830Z,1004.79
2023-02-22T00:48:01.620Z,1004.75
2023-02-22T00:49:01.851Z,1004.75
2023-02-22T00:50:01.917Z,1004.76
2023-02-22T00:51:01.706Z,1004.68
2023-02-22T00:52:02.507Z,1004.71
2023-02-22T00:53:02.567Z,1004.67
2023-02-22T00:54:02.564Z,1004.74
2023-02-22T00:55:02.776Z,1004.69
2023-02-22T00:56:02.628Z,1004.70
2023-02-22T00:57:01.462Z,1004.67
2023-02-22T00:58:01.819Z,1004.67
2023-02-22T00:59:01.713Z,1004.68
2023-02-22T01:00:01.725Z,1004.63
2023-02-22T01:01:01.793Z,1004.65
2023-02-22T01:02:01.800Z,1004.61
2023-02-22T01:03:01.727Z,1004.62
2023-02-22T01:04:01.712Z,1004.54
2023-02-22T01:05:02.018Z,1004.57
2023-02-22T01:06:01.717Z,1004.60
2023-02-22T01:07:02.646Z,1004.59
2023-02-22T01:08:02.710Z,1004.54
2023-02-22T01:09:02.157Z,1004.56
2023-02-22T01:10:02.449Z,1004.54
2023-02-22T01:11:02.284Z,1004.56
2023-02-22T01:12:01.605Z,1004.58
2023-02-22T01:13:02.162Z,1004.55
2023-02-22T01:14:01.984Z,1004.54
2023-02-22T01:15:01.975Z,1004.46
2023-02-22T01:16:02.077Z,1004.52
2023-02-22T01:17:01.812Z,1004.48
2023-02-22T01:18:02.296Z,1004.50
2023-02-22T01:19:01.785Z,1004.41
2023-02-22T01:20:02.105Z,1004.45
2023-02-22T01:21:01.827Z,1004.42
2023-02-22T01:22:02.668Z,1004.49
2023-02-22T01:23:02.968Z,1004.46
2023-02-22T01:24:02.488Z,1004.47
2023-02-22T01:25:02.737Z,1004.39
2023-02-22T01:26:02.811Z,1004.41
2023-02-22T01:27:02.353Z,1004.42
2023-02-22T01:28:02.501Z,1004.38
2023-02-22T01:29:02.702Z,1004.40
2023-02-22T01:30:02.360Z,1004.37
2023-02-22T01:31:02.463Z,1004.35
2023-02-22T01:32:02.540Z,1004.41
2023-02-22T01:33:02.315Z,1004.33
2023-02-22T01:34:02.004Z,1004.36
2023-02-22T01:35:01.917Z,1004.28
2023-02-22T01:36:02.056Z,1004.29
2023-02-22T01:37:01.444Z,1004.27
2023-02-22T01:38:01.714Z,1004.27
2023-02-22T01:39:01.394Z,1004.25
2023-02-22T01:40:01.846Z,1004.21
2023-02-22T01:41:01.625Z,1004.21
2023-02-22T01:42:02.061Z,1004.16
2023-02-22T01:43:02.066Z,1004.24
2023-02-22T01:44:02.209Z,1004.18
2023-02-22T01:45:02.038Z,1004.18
2023-02-22T01:46:01.986Z,1004.13
2023-02-22T01:47:01.816Z,1004.14
2023-02-22T01:48:01.963Z,1004.16
2023-02-22T01:49:01.962Z,1004.15
2023-02-22T01:50:01.487Z,1004.14
2023-02-22T01:51:01.478Z,1004.11
2023-02-22T01:52:02.326Z,1004.14
2023-02-22T01:53:02.236Z,1004.15
2023-02-22T01:54:02.176Z,1004.15
2023-02-22T01:55:01.750Z,1004.11
2023-02-22T01:56:02.335Z,1004.09
2023-02-22T01:57:01.541Z,1004.15
2023-02-22T01:58:01.417Z,1004.10
2023-02-22T01:59:01.283Z,1004.10
2023-02-22T02:00:01.864Z,1004.24
2023-02-22T02:01:01.574Z,1004.13
2023-02-22T02:02:02.053Z,1004.05
2023-02-22T02:03:01.899Z,1004.06
2023-02-22T02:04:02.395Z,1004.00
2023-02-22T02:05:02.029Z,1004.04
2023-02-22T02:06:01.956Z,1004.07
2023-02-22T02:07:02.339Z,1004.02
2023-02-22T02:08:02.180Z,1004.09
2023-02-22T02:09:02.682Z,1004.10
2023-02-22T02:10:02.291Z,1004.08
2023-02-22T02:11:02.128Z,1004.03
2023-02-22T02:12:02.290Z,1004.05
2023-02-22T02:13:02.673Z,1004.05
2023-02-22T02:14:02.369Z,1004.02
2023-02-22T02:15:02.837Z,1004.01
2023-02-22T02:16:02.447Z,1004.00
2023-02-22T02:17:02.172Z,1004.01
2023-02-22T02:18:01.986Z,1004.03
2023-02-22T02:19:02.220Z,1003.97
2023-02-22T02:20:01.973Z,1004.00
2023-02-22T02:21:01.706Z,1003.96
2023-02-22T02:22:02.183Z,1003.98
2023-02-22T02:23:01.946Z,1003.96
2023-02-22T02:24:01.971Z,1003.93
2023-02-22T02:25:02.417Z,1003.98
2023-02-22T02:26:02.459Z,1004.00
2023-02-22T02:27:02.543Z,1003.95
2023-02-22T02:28:02.337Z,1004.01
2023-02-22T02:29:02.758Z,1004.00
2023-02-22T02:30:02.536Z,1003.96
2023-02-22T02:31:02.970Z,1003.93
2023-02-22T02:32:02.538Z,1003.95
2023-02-22T02:33:01.903Z,1003.93
2023-02-22T02:34:02.474Z,1003.95
2023-02-22T02:35:02.443Z,1003.94
2023-02-22T02:36:01.986Z,1003.92
2023-02-22T02:37:02.452Z,1003.86
2023-02-22T02:38:02.028Z,1003.84
2023-02-22T02:39:02.456Z,1003.90
2023-02-22T02:40:02.280Z,1003.88
2023-02-22T02:41:02.651Z,1003.85
2023-02-22T02:42:02.456Z,1003.84
2023-02-22T02:43:03.012Z,1003.86
2023-02-22T02:44:02.565Z,1003.86
2023-02-22T02:45:02.424Z,1003.81
2023-02-22T02:46:02.826Z,1003.83
2023-02-22T02:47:02.389Z,1003.83
2023-02-22T02:48:02.116Z,1003.85
2023-02-22T02:49:02.000Z,1003.82
2023-02-22T02:50:02.479Z,1003.76
2023-02-22T02:51:02.000Z,1003.83
2023-02-22T02:52:02.463Z,1003.81
2023-02-22T02:53:02.219Z,1003.83
2023-02-22T02:54:01.981Z,1003.80
2023-02-22T02:55:02.430Z,1003.81
2023-02-22T02:56:02.197Z,1003.75
2023-02-22T02:57:02.632Z,1003.79
2023-02-22T02:58:02.328Z,1003.77
2023-02-22T02:59:02.757Z,1003.81
2023-02-22T03:00:02.252Z,1003.77
2023-02-22T03:01:02.713Z,1003.80
2023-02-22T03:02:03.026Z,1003.72
2023-02-22T03:03:02.985Z,1003.86
2023-02-22T03:04:02.802Z,1003.81
2023-02-22T03:05:02.634Z,1003.76
2023-02-22T03:06:02.843Z,1003.82
2023-02-22T03:07:03.435Z,1003.80
2023-02-22T03:08:03.001Z,1003.79
2023-02-22T03:09:03.482Z,1003.79
2023-02-22T03:10:03.042Z,1003.74
2023-02-22T03:11:03.039Z,1003.77
2023-02-22T03:12:02.589Z,1003.78
2023-02-22T03:13:02.336Z,1003.79
2023-02-22T03:14:02.694Z,1003.83
2023-02-22T03:15:02.325Z,1003.76
2023-02-22T03:16:02.105Z,1003.77
2023-02-22T03:17:03.012Z,1003.76
2023-02-22T03:18:02.983Z,1003.77
2023-02-22T03:19:02.748Z,1003.79
2023-02-22T03:20:03.191Z,1003.79
2023-02-22T03:21:03.031Z,1003.73
2023-02-22T03:22:03.407Z,1003.77
2023-02-22T03:23:02.979Z,1003.76
2023-02-22T03:24:03.429Z,1003.79
2023-02-22T03:25:03.252Z,1003.72
2023-02-22T03:26:03.328Z,1003.73
2023-02-22T03:27:02.862Z,1003.77
2023-02-22T03:28:02.317Z,1003.82
2023-02-22T03:29:02.695Z,1003.78
2023-02-22T03:30:02.449Z,1003.72
2023-02-22T03:31:02.932Z,1003.77
2023-02-22T03:32:02.493Z,1003.77
2023-02-22T03:33:03.085Z,1003.77
2023-02-22T03:34:02.622Z,1003.80
2023-02-22T03:35:03.008Z,1003.76
2023-02-22T03:36:02.942Z,1003.79
2023-02-22T03:37:03.398Z,1003.74
2023-02-22T03:38:03.056Z,1003.70
2023-02-22T03:39:02.830Z,1003.74
2023-02-22T03:40:03.250Z,1003.72
2023-02-22T03:41:03.340Z,1003.72
2023-02-22T03:42:02.521Z,1003.73
2023-02-22T03:43:02.102Z,1003.71
2023-02-22T03:44:01.984Z,1003.70
2023-02-22T03:45:02.104Z,1003.69
2023-02-22T03:46:02.181Z,1003.69
2023-02-22T03:47:02.001Z,1003.68
2023-02-22T03:48:02.262Z,1003.70
2023-02-22T03:49:02.034Z,1003.71
2023-02-22T03:50:02.198Z,1003.68
2023-02-22T03:51:02.642Z,1003.68
2023-02-22T03:52:03.198Z,1003.71
2023-02-22T03:53:02.703Z,1003.66
2023-02-22T03:54:03.092Z,1003.66
2023-02-22T03:55:02.773Z,1003.70
2023-02-22T03:56:03.101Z,1003.71
2023-02-22T03:57:03.269Z,1003.70
2023-02-22T03:58:03.058Z,1003.77
2023-02-22T03:59:02.873Z,1003.66
2023-02-22T04:00:02.637Z,1003.70
2023-02-22T04:01:03.138Z,1003.68
2023-02-22T04:02:03.003Z,1003.72
2023-02-22T04:03:03.432Z,1003.74
2023-02-22T04:04:03.200Z,1003.70
2023-02-22T04:05:03.594Z,1003.74
2023-02-22T04:06:03.031Z,1003.69
2023-02-22T04:07:02.509Z,1003.67
2023-02-22T04:08:02.523Z,1003.74
2023-02-22T04:09:02.972Z,1003.76
2023-02-22T04:10:02.682Z,1003.70
2023-02-22T04:11:02.669Z,1003.65
2023-02-22T04:12:03.037Z,1003.68
2023-02-22T04:13:03.286Z,1003.70
2023-02-22T04:14:03.110Z,1003.65
2023-02-22T04:15:03.612Z,1003.65
2023-02-22T04:16:03.135Z,1003.68
2023-02-22T04:17:02.514Z,1003.67
2023-02-22T04:18:03.018Z,1003.66
2023-02-22T04:19:02.464Z,1003.62
2023-02-22T04:20:02.885Z,1003.64
2023-02-22T04:21:02.603Z,1003.63
2023-02-22T04:22:03.084Z,1003.64
2023-02-22T04:23:03.499Z,1003.64
2023-02-22T04:24:03.366Z,1003.61
2023-02-22T04:25:03.193Z,1003.62
2023-02-22T04:26:03.682Z,1003.62
2023-02-22T04:27:03.195Z,1003.61
2023-02-22T04:28:03.622Z,1003.63
2023-02-22T04:29:03.373Z,1003.61
2023-02-22T04:30:03.103Z,1003.63
2023-02-22T04:31:03.642Z,1003.53
2023-02-22T04:32:03.272Z,1003.56
2023-02-22T04:33:03.126Z,1003.60
2023-02-22T04:34:02.867Z,1003.53
2023-02-22T04:35:03.251Z,1003.58
2023-02-22T04:36:02.733Z,1003.55
2023-02-22T04:37:03.149Z,1003.50
2023-02-22T04:38:03.279Z,1003.50
2023-02-22T04:39:03.030Z,1003.50
2023-02-22T04:40:03.434Z,1003.56
2023-02-22T04:41:03.025Z,1003.49
2023-02-22T04:42:02.678Z,1003.49
2023-02-22T04:43:03.070Z,1003.48
2023-02-22T04:44:02.612Z,1003.51
2023-02-22T04:45:02.488Z,1003.52
2023-02-22T04:46:02.903Z,1003.51
2023-02-22T04:47:03.393Z,1003.44
2023-02-22T04:48:03.139Z,1003.47
2023-02-22T04:49:03.510Z,1003.49
2023-02-22T04:50:02.985Z,1003.46
2023-02-22T04:51:03.095Z,1003.50
2023-02-22T04:52:02.551Z,1003.45
2023-02-22T04:53:03.045Z,1003.49
2023-02-22T04:54:02.957Z,1003.43
2023-02-22T04:55:02.838Z,1003.44
2023-02-22T04:56:02.553Z,1003.45
2023-02-22T04:57:03.306Z,1003.48
2023-02-22T04:58:03.039Z,1003.42
2023-02-22T04:59:02.839Z,1003.41
2023-02-22T05:00:03.209Z,1003.43
2023-02-22T05:01:03.172Z,1003.41
2023-02-22T05:02:02.997Z,1003.40
2023-02-22T05:03:02.692Z,1003.39
2023-02-22T05:04:03.235Z,1003.40
2023-02-22T05:05:03.205Z,1003.40
2023-02-22T05:06:02.944Z,1003.36
2023-02-22T05:07:02.422Z,1003.39
2023-02-22T05:08:02.279Z,1003.37
2023-02-22T05:09:02.618Z,1003.33
2023-02-22T05:10:02.670Z,1003.33
2023-02-22T05:11:02.143Z,1003.35
2023-02-22T05:12:02.721Z,1003.27
2023-02-22T05:13:04.117Z,1003.30
2023-02-22T05:14:02.293Z,1003.34
2023-02-22T05:15:02.708Z,1003.32
2023-02-22T05:16:02.568Z,1003.33
2023-02-22T05:17:02.974Z,1003.33
2023-02-22T05:18:02.774Z,1003.32
2023-02-22T05:19:02.573Z,1003.32
2023-02-22T05:20:02.769Z,1003.32
2023-02-22T05:21:02.557Z,1003.30
2023-02-22T05:22:02.933Z,1003.29
2023-02-22T05:23:02.737Z,1003.28
2023-02-22T05:24:03.273Z,1003.24
2023-02-22T05:25:02.785Z,1003.26
2023-02-22T05:26:03.222Z,1003.28
2023-02-22T05:27:02.549Z,1003.23
2023-02-22T05:28:02.235Z,1003.25
2023-02-22T05:29:02.672Z,1003.28
2023-02-22T05:30:02.160Z,1003.21
2023-02-22T05:31:02.696Z,1003.22
2023-02-22T05:32:03.212Z,1003.22
2023-02-22T05:33:03.049Z,1003.27
2023-02-22T05:34:02.822Z,1003.21
2023-02-22T05:35:02.931Z,1003.28
2023-02-22T05:36:02.738Z,1003.26
2023-02-22T05:37:02.195Z,1003.27
2023-02-22T05:38:01.938Z,1003.23
2023-02-22T05:39:02.365Z,1003.23
2023-02-22T05:40:01.912Z,1003.23
2023-02-22T05:41:01.882Z,1003.25
2023-02-22T05:42:02.354Z,1003.21
2023-02-22T05:43:02.065Z,1003.22
2023-02-22T05:44:01.894Z,1003.21
2023-02-22T05:45:02.316Z,1003.24
2023-02-22T05:46:02.310Z,1003.25
2023-02-22T05:47:02.711Z,1003.23
2023-02-22T05:48:03.052Z,1003.20
2023-02-22T05:49:02.548Z,1003.21
2023-02-22T05:50:02.428Z,1003.20
2023-02-22T05:51:02.901Z,1003.16
2023-02-22T05:52:03.072Z,1003.11
2023-02-22T05:53:02.741Z,1003.15
2023-02-22T05:54:03.129Z,1003.15
2023-02-22T05:55:02.665Z,1003.17
2023-02-22T05:56:03.095Z,1003.15
2023-02-22T05:57:03.102Z,1003.10
2023-02-22T05:58:03.122Z,1003.09
2023-02-22T05:59:02.950Z,1003.12
2023-02-22T06:00:02.989Z,1003.14
2023-02-22T06:01:03.570Z,1003.11
2023-02-22T06:02:03.188Z,1003.03
2023-02-22T06:03:03.044Z,1003.07
2023-02-22T06:04:02.889Z,1003.05
2023-02-22T06:05:02.845Z,1003.06
2023-02-22T06:06:03.357Z,1003.02
2023-02-22T06:07:03.601Z,1003.11
2023-02-22T06:08:03.349Z,1003.06
2023-02-22T06:09:03.439Z,1003.07
2023-02-22T06:10:03.422Z,1003.04
2023-02-22T06:11:03.731Z,1003.06
2023-02-22T06:12:03.087Z,1003.03
2023-02-22T06:13:03.057Z,1002.99
2023-02-22T06:14:03.047Z,1003.00
2023-02-22T06:15:02.925Z,1003.01
2023-02-22T06:16:03.033Z,1003.04
2023-02-22T06:17:03.544Z,1003.02
2023-02-22T06:18:03.207Z,1002.98
2023-02-22T06:19:03.624Z,1003.04
2023-02-22T06:20:03.603Z,1003.04
2023-02-22T06:21:03.533Z,1003.01
2023-02-22T06:22:02.948Z,1002.98
2023-02-22T06:23:02.681Z,1002.98
2023-02-22T06:24:02.487Z,1002.96
2023-02-22T06:25:02.347Z,1003.02
2023-02-22T06:26:02.383Z,1002.99
2023-02-22T06:27:03.580Z,1003.04
2023-02-22T06:28:03.197Z,1003.01
2023-02-22T06:29:03.061Z,1002.97
2023-02-22T06:30:03.208Z,1002.96
2023-02-22T06:31:03.193Z,1002.93
2023-02-22T06:32:02.591Z,1002.94
2023-02-22T06:33:02.582Z,1002.95
2023-02-22T06:34:03.156Z,1002.94
2023-02-22T06:35:02.665Z,1002.93
2023-02-22T06:36:02.585Z,1002.99
2023-02-22T06:37:02.177Z,1002.95
2023-02-22T06:38:02.625Z,1002.98
2023-02-22T06:39:02.468Z,1002.94
2023-02-22T06:40:05.510Z,1002.91
2023-02-22T06:41:02.803Z,1002.98
2023-02-22T06:42:02.431Z,1002.99
2023-02-22T06:43:02.341Z,1002.92
2023-02-22T06:44:02.898Z,1003.01
2023-02-22T06:45:02.722Z,1002.91
2023-02-22T06:46:02.711Z,1002.96
2023-02-22T06:47:02.843Z,1002.94
2023-02-22T06:48:03.486Z,1002.96
2023-02-22T06:49:03.159Z,1002.93
2023-02-22T06:50:03.053Z,1002.99
2023-02-22T06:51:02.879Z,1002.94
2023-02-22T06:52:03.008Z,1002.93
2023-02-22T06:53:03.270Z,1002.96
2023-02-22T06:54:03.008Z,1002.91
2023-02-22T06:55:03.461Z,1002.97
2023-02-22T06:56:03.302Z,1002.96
2023-02-22T06:57:02.189Z,1003.00
2023-02-22T06:58:02.501Z,1002.96
2023-02-22T06:59:02.920Z,1002.99
2023-02-22T07:00:02.736Z,1002.99
2023-02-22T07:01:02.387Z,1002.97
2023-02-22T07:02:02.637Z,1002.91
2023-02-22T07:03:02.698Z,1002.96
2023-02-22T07:04:02.901Z,1002.97
2023-02-22T07:05:02.848Z,1002.98
2023-02-22T07:06:02.476Z,1002.99
2023-02-22T07:07:02.769Z,1003.00
2023-02-22T07:08:03.216Z,1002.99
2023-02-22T07:09:03.351Z,1003.03
2023-02-22T07:10:03.199Z,1003.03
2023-02-22T07:11:03.213Z,1003.05
2023-02-22T07:12:02.281Z,1003.00
2023-02-22T07:13:02.189Z,1003.01
2023-02-22T07:14:02.209Z,1003.03
2023-02-22T07:15:02.659Z,1003.00
2023-02-22T07:16:02.317Z,1003.04
2023-02-22T07:17:03.070Z,1003.03
2023-02-22T07:18:03.091Z,1003.07
2023-02-22T07:19:03.012Z,1003.04
2023-02-22T07:20:02.908Z,1003.06
2023-02-22T07:21:02.727Z,1003.04
2023-02-22T07:22:02.341Z,1003.03
2023-02-22T07:23:02.330Z,1003.01
2023-02-22T07:24:05.164Z,1002.97
2023-02-22T07:25:02.472Z,1003.02
2023-02-22T07:26:02.131Z,1003.05
2023-02-22T07:27:02.794Z,1002.98
2023-02-22T07:28:03.114Z,1002.98
2023-02-22T07:29:02.800Z,1002.98
2023-02-22T07:30:03.026Z,1002.97
2023-02-22T07:31:02.997Z,1002.96
2023-02-22T07:32:02.214Z,1003.01
2023-02-22T07:33:02.517Z,1002.99
2023-02-22T07:34:02.285Z,1002.93
2023-02-22T07:35:02.219Z,1002.93
2023-02-22T07:36:02.301Z,1002.91
2023-02-22T07:37:02.383Z,1002.91
2023-02-22T07:38:02.569Z,1002.91
2023-02-22T07:39:02.115Z,1002.92
2023-02-22T07:40:02.608Z,1002.89
2023-02-22T07:41:02.279Z,1002.96
2023-02-22T07:42:02.351Z,1002.93
2023-02-22T07:43:02.494Z,1002.92
2023-02-22T07:44:02.697Z,1002.98
2023-02-22T07:45:02.528Z,1002.96
2023-02-22T07:46:02.412Z,1002.90
2023-02-22T07:47:02.384Z,1002.95
2023-02-22T07:48:02.401Z,1002.89
2023-02-22T07:49:02.572Z,1002.92
2023-02-22T07:50:02.416Z,1002.90
2023-02-22T07:51:02.228Z,1002.95
2023-02-22T07:52:02.720Z,1002.87
2023-02-22T07:53:03.106Z,1002.88
2023-02-22T07:54:02.935Z,1002.91
2023-02-22T07:55:02.727Z,1002.87
2023-02-22T07:56:03.052Z,1002.87
2023-02-22T07:57:02.989Z,1002.90
2023-02-22T07:58:03.132Z,1002.90
2023-02-22T07:59:02.740Z,1002.90
2023-02-22T08:00:03.205Z,1002.87
2023-02-22T08:01:02.800Z,1002.89
2023-02-22T08:02:02.413Z,1002.89
2023-02-22T08:03:02.557Z,1002.90
2023-02-22T08:04:02.634Z,1002.83
2023-02-22T08:05:02.563Z,1002.84
2023-02-22T08:06:02.749Z,1002.86
2023-02-22T08:07:03.063Z,1002.90
2023-02-22T08:08:02.882Z,1002.81
2023-02-22T08:09:02.892Z,1002.86
2023-02-22T08:10:03.419Z,1002.83
2023-02-22T08:11:03.017Z,1002.83
2023-02-22T08:12:02.758Z,1002.79
2023-02-22T08:13:02.744Z,1002.84
2023-02-22T08:14:02.741Z,1002.78
2023-02-22T08:15:02.622Z,1002.81
2023-02-22T08:16:03.020Z,1002.85
2023-02-22T08:17:02.133Z,1002.81
2023-02-22T08:18:02.261Z,1002.81
2023-02-22T08:19:02.403Z,1002.78
2023-02-22T08:20:02.185Z,1002.84
2023-02-22T08:21:02.629Z,1002.76
2023-02-22T08:22:03.019Z,1002.75
2023-02-22T08:23:03.160Z,1002.78
2023-02-22T08:24:02.710Z,1002.75
2023-02-22T08:25:03.201Z,1002.74
2023-02-22T08:26:03.174Z,1002.75
2023-02-22T08:27:02.763Z,1002.69
2023-02-22T08:28:03.093Z,1002.69
2023-02-22T08:29:03.063Z,1002.71
2023-02-22T08:30:03.001Z,1002.71
2023-02-22T08:31:02.990Z,1002.69
2023-02-22T08:32:02.306Z,1002.72
2023-02-22T08:33:02.777Z,1002.71
2023-02-22T08:34:02.339Z,1002.70
2023-02-22T08:35:02.716Z,1002.71
2023-02-22T08:36:02.286Z,1002.67
2023-02-22T08:37:02.947Z,1002.72
2023-02-22T08:38:02.602Z,1002.62
2023-02-22T08:39:02.944Z,1002.68
2023-02-22T08:40:02.799Z,1002.65
2023-02-22T08:41:02.619Z,1002.66
2023-02-22T08:42:03.131Z,1002.65
2023-02-22T08:43:03.256Z,1002.64
2023-02-22T08:44:03.230Z,1002.66
2023-02-22T08:45:02.648Z,1002.58
2023-02-22T08:46:03.075Z,1002.58
2023-02-22T08:47:02.229Z,1002.60
2023-02-22T08:48:02.253Z,1002.61
2023-02-22T08:49:02.342Z,1002.57
2023-02-22T08:50:02.168Z,1002.58
2023-02-22T08:51:01.762Z,1002.57
2023-02-22T08:52:02.760Z,1002.53
2023-02-22T08:53:02.508Z,1002.56
2023-02-22T08:54:02.879Z,1002.51
2023-02-22T08:55:02.759Z,1002.55
2023-02-22T08:56:02.691Z,1002.54
2023-02-22T08:57:02.558Z,1002.55
2023-02-22T08:58:02.536Z,1002.50
2023-02-22T08:59:02.982Z,1002.48
2023-02-22T09:00:02.809Z,1002.47
2023-02-22T09:01:03.119Z,1002.47
2023-02-22T09:02:02.441Z,1002.45
2023-02-22T09:03:02.088Z,1002.50
2023-02-22T09:04:02.331Z,1002.50
2023-02-22T09:05:01.799Z,1002.47
2023-02-22T09:06:01.998Z,1002.36
2023-02-22T09:07:02.564Z,1002.46
2023-02-22T09:08:02.230Z,1002.45
2023-02-22T09:09:02.454Z,1002.43
2023-02-22T09:10:02.436Z,1002.37
2023-02-22T09:11:02.347Z,1002.36
2023-02-22T09:12:02.946Z,1002.33
2023-02-22T09:13:03.137Z,1002.39
2023-02-22T09:14:02.372Z,1002.31
2023-02-22T09:15:02.984Z,1002.35
2023-02-22T09:16:02.851Z,1002.33
2023-02-22T09:17:04.621Z,1002.28
2023-02-22T09:18:02.002Z,1002.29
2023-02-22T09:19:02.244Z,1002.30
2023-02-22T09:20:01.883Z,1002.35
2023-02-22T09:21:01.853Z,1002.30
2023-02-22T09:22:02.335Z,1002.28
2023-02-22T09:23:02.467Z,1002.33
2023-02-22T09:24:02.359Z,1002.29
2023-02-22T09:25:11.291Z,1002.28
2023-02-22T09:26:02.737Z,1002.28
2023-02-22T09:27:02.758Z,1002.31
2023-02-22T09:28:02.471Z,1002.28
2023-02-22T09:29:02.238Z,1002.24
2023-02-22T09:30:02.466Z,1002.28
2023-02-22T09:31:02.766Z,1002.28
2023-02-22T09:32:02.845Z,1002.23
2023-02-22T09:33:03.391Z,1002.27
2023-02-22T09:34:04.293Z,1002.24
2023-02-22T09:35:02.967Z,1002.26
2023-02-22T09:36:02.897Z,1002.28
2023-02-22T09:37:01.843Z,1002.21
2023-02-22T09:38:01.932Z,1002.16
2023-02-22T09:39:01.921Z,1002.16
2023-02-22T09:40:02.179Z,1002.06
2023-02-22T09:41:02.296Z,1002.13
2023-02-22T09:42:02.892Z,1002.16
2023-02-22T09:43:03.108Z,1002.15
2023-02-22T09:44:02.523Z,1002.18
2023-02-22T09:45:02.427Z,1002.19
2023-02-22T09:46:02.840Z,1002.15
2023-02-22T09:47:02.162Z,1002.14
2023-02-22T09:48:11.701Z,1002.11
2023-02-22T09:49:02.661Z,1002.17
2023-02-22T09:50:02.634Z,1002.14
2023-02-22T09:51:02.102Z,1002.14
2023-02-22T09:52:01.804Z,1002.12
2023-02-22T09:53:02.321Z,1002.11
2023-02-22T09:54:02.024Z,1002.15
2023-02-22T09:55:01.949Z,1002.08
2023-02-22T09:56:02.266Z,1002.03
2023-02-22T09:57:01.961Z,1002.08
2023-02-22T09:58:02.061Z,1001.99
2023-02-22T09:59:02.269Z,1002.00
2023-02-22T10:00:01.810Z,1002.02
2023-02-22T10:01:02.067Z,1001.93
2023-02-22T10:02:02.465Z,1001.93
2023-02-22T10:03:02.198Z,1001.92
2023-02-22T10:04:02.443Z,1001.97
2023-02-22T10:05:02.643Z,1001.95
2023-02-22T10:06:02.676Z,1001.95
2023-02-22T10:07:02.313Z,1001.95
2023-02-22T10:08:02.307Z,1001.99
2023-02-22T10:09:02.082Z,1001.98
2023-02-22T10:10:02.673Z,1001.97
2023-02-22T10:11:02.342Z,1002.00
2023-02-22T10:12:02.345Z,1001.95
2023-02-22T10:13:02.156Z,1001.97
2023-02-22T10:14:02.161Z,1001.91
2023-02-22T10:15:02.451Z,1001.93
2023-02-22T10:16:02.135Z,1001.93
2023-02-22T10:17:02.387Z,1001.93
2023-02-22T10:18:02.529Z,1001.89
2023-02-22T10:19:02.617Z,1001.91
2023-02-22T10:20:02.531Z,1001.94
2023-02-22T10:21:02.224Z,1001.91
2023-02-22T10:22:01.882Z,1001.93
2023-02-22T10:23:02.153Z,1001.93
2023-02-22T10:24:02.235Z,1001.91
2023-02-22T10:25:02.168Z,1001.95
2023-02-22T10:26:02.163Z,1001.95
2023-02-22T10:27:02.300Z,1001.98
2023-02-22T10:28:02.255Z,1001.98
2023-02-22T10:29:02.301Z,1001.98
2023-02-22T10:30:07.339Z,1002.00
2023-02-22T10:31:02.757Z,1001.94
2023-02-22T10:32:02.615Z,1001.90
2023-02-22T10:33:02.188Z,1001.90
2023-02-22T10:34:02.411Z,1001.89
2023-02-22T10:35:02.697Z,1001.83
2023-02-22T10:36:02.291Z,1001.87
2023-02-22T10:37:02.654Z,1001.85
2023-02-22T10:38:03.105Z,1001.87
2023-02-22T10:39:02.672Z,1001.82
2023-02-22T10:40:02.513Z,1001.77
2023-02-22T10:41:02.908Z,1001.79
2023-02-22T10:42:01.818Z,1001.81
2023-02-22T10:43:01.860Z,1001.74
2023-02-22T10:44:02.199Z,1001.74
2023-02-22T10:45:01.867Z,1001.74
2023-02-22T10:46:01.735Z,1001.75
2023-02-22T10:47:02.498Z,1001.79
2023-02-22T10:48:02.620Z,1001.79
2023-02-22T10:49:02.788Z,1001.72
2023-02-22T10:50:02.514Z,1001.74
2023-02-22T10:51:02.488Z,1001.71
2023-02-22T10:52:02.734Z,1001.72
2023-02-22T10:53:03.127Z,1001.66
2023-02-22T10:54:02.642Z,1001.71
2023-02-22T10:55:14.500Z,1001.69
2023-02-22T10:56:03.064Z,1001.65
2023-02-22T10:57:02.354Z,1001.68
2023-02-22T10:58:01.928Z,1001.67
2023-02-22T10:59:02.389Z,1001.69
2023-02-22T11:00:02.026Z,1001.68
2023-02-22T11:01:02.158Z,1001.71
2023-02-22T11:02:02.283Z,1001.62
2023-02-22T11:03:02.402Z,1001.63
2023-02-22T11:04:02.447Z,1001.65
2023-02-22T11:05:02.336Z,1001.62
2023-02-22T11:06:02.672Z,1001.57
2023-02-22T11:07:02.819Z,1001.57
2023-02-22T11:08:02.744Z,1001.57
2023-02-22T11:09:02.499Z,1001.62
2023-02-22T11:10:02.565Z,1001.69
2023-02-22T11:11:02.664Z,1001.58
2023-02-22T11:12:02.968Z,1001.60
2023-02-22T11:13:03.132Z,1001.58
2023-02-22T11:14:02.677Z,1001.55
2023-02-22T11:15:02.750Z,1001.59
2023-02-22T11:16:03.311Z,1001.59
2023-02-22T11:17:02.599Z,1001.56
2023-02-22T11:18:02.640Z,1001.53
2023-02-22T11:19:02.240Z,1001.56
2023-02-22T11:20:02.250Z,1001.55
2023-02-22T11:21:02.695Z,1001.47
2023-02-22T11:22:03.131Z,1001.44
2023-02-22T11:23:02.876Z,1001.37
2023-02-22T11:24:03.259Z,1001.37
2023-02-22T11:25:03.291Z,1001.38
2023-02-22T11:26:02.957Z,1001.39
2023-02-22T11:27:02.882Z,1001.32
2023-02-22T11:28:02.667Z,1001.30
2023-02-22T11:29:02.958Z,1001.26
2023-02-22T11:30:05.569Z,1001.27
2023-02-22T11:31:02.663Z,1001.24
2023-02-22T11:32:03.019Z,1001.23
2023-02-22T11:33:03.141Z,1001.21
2023-02-22T11:34:03.210Z,1001.24
2023-02-22T11:35:09.042Z,1001.23
2023-02-22T11:36:02.748Z,1001.21
2023-02-22T11:37:03.126Z,1001.19
2023-02-22T11:38:03.352Z,1001.18
2023-02-22T11:39:02.884Z,1001.13
2023-02-22T11:40:02.714Z,1001.15
2023-02-22T11:41:02.942Z,1001.11
2023-02-22T11:42:02.799Z,1001.14
2023-02-22T11:43:02.746Z,1001.17
2023-02-22T11:44:02.849Z,1001.10
2023-02-22T11:45:02.730Z,1001.10
2023-02-22T11:46:02.902Z,1001.09
2023-02-22T11:47:02.804Z,1001.04
2023-02-22T11:48:02.540Z,1000.98
2023-02-22T11:49:02.661Z,1000.97
2023-02-22T11:50:02.771Z,1000.98
2023-02-22T11:51:02.658Z,1001.00
2023-02-22T11:52:03.104Z,1001.00
2023-02-22T11:53:03.168Z,1001.02
2023-02-22T11:54:02.809Z,1000.99
2023-02-22T11:55:03.044Z,1000.97
2023-02-22T11:56:02.994Z,1000.94
2023-02-22T11:57:02.830Z,1000.95
2023-02-22T11:58:02.328Z,1000.97
2023-02-22T11:59:02.885Z,1000.97
2023-02-22T12:00:02.876Z,1000.90
2023-02-22T12:01:02.585Z,1000.89
2023-02-22T12:02:03.346Z,1000.87
2023-02-22T12:03:03.205Z,1000.87
2023-02-22T12:04:03.378Z,1000.79
2023-02-22T12:05:03.338Z,1000.78